createdAt,value
2018-07-07T00:02:29.092Z,5.87
2018-07-07T00:07:22.323Z,5.77
2018-07-07T00:12:15.630Z,5.40
2018-07-07T00:17:08.949Z,5.50
2018-07-07T00:22:02.632Z,6.35
2018-07-07T00:26:55.896Z,5.73
2018-07-07T00:31:49.130Z,5.20
2018-07-07T00:36:43.851Z,5.50
2018-07-07T00:41:37.085Z,5.40
2018-07-07T00:46:30.314Z,5.42
2018-07-07T00:51:23.543Z,5.33
2018-07-07T00:56:17.397Z,5.17
2018-07-07T01:01:10.687Z,5.20
2018-07-07T01:06:03.966Z,5.12
2018-07-07T01:10:57.213Z,4.83
2018-07-07T01:15:50.819Z,5.47
2018-07-07T01:20:44.662Z,5.53
2018-07-07T01:25:37.979Z,6.00
2018-07-07T01:30:31.285Z,5.92
2018-07-07T01:35:24.609Z,5.93
2018-07-07T01:40:18.040Z,5.70
2018-07-07T01:45:11.412Z,5.70
2018-07-07T01:50:04.803Z,6.23
2018-07-07T01:54:58.094Z,6.03
2018-07-07T01:59:51.386Z,5.40
2018-07-07T02:04:44.707Z,5.73
2018-07-07T02:09:37.962Z,6.10
2018-07-07T02:14:31.204Z,5.63
2018-07-07T02:19:24.624Z,5.30
2018-07-07T02:24:17.799Z,5.53
2018-07-07T02:29:11.800Z,4.97
2018-07-07T02:34:05.177Z,5.53
2018-07-07T02:38:58.430Z,4.75
2018-07-07T02:43:51.759Z,5.20
2018-07-07T02:48:45.035Z,4.60
2018-07-07T02:53:38.328Z,4.77
2018-07-07T02:58:31.591Z,4.67
2018-07-07T03:03:24.941Z,4.62
2018-07-07T03:08:18.115Z,4.60
2018-07-07T03:13:11.493Z,4.90
2018-07-07T03:18:04.768Z,4.80
2018-07-07T03:22:58.032Z,4.40
2018-07-07T03:27:51.290Z,4.13
2018-07-07T03:32:44.469Z,4.28
2018-07-07T03:37:37.597Z,4.80
2018-07-07T03:42:30.840Z,4.60
2018-07-07T03:47:24.119Z,4.40
2018-07-07T03:52:17.364Z,4.90
2018-07-07T03:57:10.571Z,4.13
2018-07-07T04:02:06.992Z,4.00
2018-07-07T04:07:00.232Z,4.37
2018-07-07T04:11:53.490Z,4.55
2018-07-07T04:16:46.690Z,4.00
2018-07-07T04:21:40.027Z,3.87
2018-07-07T04:26:33.288Z,5.00
2018-07-07T04:31:26.572Z,6.25
2018-07-07T04:36:19.860Z,6.47
2018-07-07T04:41:13.135Z,5.72
2018-07-07T04:46:06.485Z,5.77
2018-07-07T04:50:59.724Z,6.25
2018-07-07T04:55:52.972Z,6.27
2018-07-07T05:00:46.377Z,6.40
2018-07-07T05:05:39.699Z,6.20
2018-07-07T05:10:33.044Z,5.87
2018-07-07T05:15:26.214Z,5.13
2018-07-07T05:20:19.585Z,5.10
2018-07-07T05:25:12.767Z,5.13
2018-07-07T05:30:06.061Z,5.60
2018-07-07T05:34:59.441Z,5.03
2018-07-07T05:39:52.696Z,5.47
2018-07-07T05:44:46.020Z,5.00
2018-07-07T05:49:39.322Z,4.28
2018-07-07T05:54:32.612Z,4.57
2018-07-07T05:59:26.009Z,4.27
2018-07-07T06:04:19.294Z,5.37
2018-07-07T06:09:12.756Z,4.67
2018-07-07T06:14:05.921Z,4.40
2018-07-07T06:18:59.296Z,4.20
2018-07-07T06:23:52.464Z,5.37
2018-07-07T06:28:45.771Z,4.80
2018-07-07T06:33:39.016Z,4.40
2018-07-07T06:38:32.191Z,4.28
2018-07-07T06:43:25.370Z,4.07
2018-07-07T06:48:18.564Z,4.17
2018-07-07T06:53:11.853Z,3.60
2018-07-07T06:58:05.218Z,4.05
2018-07-07T07:02:58.536Z,4.20
2018-07-07T07:07:51.791Z,4.10
2018-07-07T07:12:45.084Z,4.13
2018-07-07T07:17:38.602Z,3.67
2018-07-07T07:22:31.915Z,4.00
2018-07-07T07:27:25.166Z,3.53
2018-07-07T07:32:18.412Z,3.20
2018-07-07T07:37:11.711Z,2.90
2018-07-07T07:42:05.041Z,2.73
2018-07-07T07:46:58.845Z,3.20
2018-07-07T07:51:52.089Z,2.52
2018-07-07T07:56:45.356Z,2.23
2018-07-07T08:01:38.592Z,2.22
2018-07-07T08:06:31.766Z,1.90
2018-07-07T08:11:25.064Z,2.27
2018-07-07T08:16:18.486Z,2.07
2018-07-07T08:21:11.792Z,2.00
2018-07-07T08:26:05.469Z,1.60
2018-07-07T08:30:58.782Z,1.90
2018-07-07T08:35:52.657Z,1.95
2018-07-07T08:40:46.455Z,2.33
2018-07-07T08:45:39.927Z,2.40
2018-07-07T08:50:33.162Z,2.50
2018-07-07T08:55:26.434Z,2.70
2018-07-07T09:00:19.680Z,2.60
2018-07-07T09:05:13.051Z,2.23
2018-07-07T09:10:06.406Z,2.50
2018-07-07T09:14:59.672Z,2.50
2018-07-07T09:19:52.889Z,2.17
2018-07-07T09:24:46.141Z,2.20
2018-07-07T09:29:39.402Z,2.40
2018-07-07T09:34:32.640Z,2.20
2018-07-07T09:39:25.948Z,2.43
2018-07-07T09:44:19.191Z,2.30
2018-07-07T09:49:12.466Z,2.23
2018-07-07T09:54:05.818Z,2.27
2018-07-07T09:58:59.076Z,2.30
2018-07-07T10:03:52.387Z,2.00
2018-07-07T10:08:45.656Z,2.07
2018-07-07T10:13:38.935Z,3.13
2018-07-07T10:18:32.313Z,3.40
2018-07-07T10:23:25.557Z,2.10
2018-07-07T10:28:18.860Z,1.92
2018-07-07T10:33:12.293Z,1.90
2018-07-07T10:38:05.609Z,2.20
2018-07-07T10:42:58.888Z,2.10
2018-07-07T10:47:52.149Z,2.13
2018-07-07T10:52:45.385Z,2.40
2018-07-07T10:57:38.672Z,1.90
2018-07-07T11:02:31.925Z,1.95
2018-07-07T11:07:25.211Z,1.93
2018-07-07T11:12:18.504Z,2.27
2018-07-07T11:17:11.778Z,2.23
2018-07-07T11:22:05.325Z,2.08
2018-07-07T11:26:58.593Z,1.70
2018-07-07T11:31:51.741Z,2.50
2018-07-07T11:36:45.201Z,2.60
2018-07-07T11:41:38.368Z,2.23
2018-07-07T11:46:31.701Z,2.20
2018-07-07T11:51:25.040Z,2.10
2018-07-07T11:56:18.339Z,2.73
2018-07-07T12:01:11.586Z,3.10
2018-07-07T12:06:05.051Z,3.47
2018-07-07T12:10:58.354Z,3.20
2018-07-07T12:15:51.618Z,2.77
2018-07-07T12:20:45.496Z,2.73
2018-07-07T12:25:39.391Z,2.47
2018-07-07T12:30:32.672Z,2.70
2018-07-07T12:35:26.603Z,1.82
2018-07-07T12:40:19.991Z,2.30
2018-07-07T12:45:15.145Z,2.00
2018-07-07T12:50:08.410Z,2.20
2018-07-07T12:55:01.657Z,1.95
2018-07-07T12:59:54.949Z,1.57
2018-07-07T13:04:48.242Z,2.02
2018-07-07T13:09:42.957Z,2.43
2018-07-07T13:14:36.141Z,3.00
2018-07-07T13:19:29.445Z,2.00
2018-07-07T13:24:22.724Z,1.90
2018-07-07T13:29:15.959Z,2.12
2018-07-07T13:34:09.243Z,2.07
2018-07-07T13:39:02.710Z,1.95
2018-07-07T13:43:55.962Z,1.90
2018-07-07T13:48:49.223Z,2.70
2018-07-07T13:53:43.667Z,1.73
2018-07-07T13:58:37.584Z,2.43
2018-07-07T14:03:30.801Z,1.80
2018-07-07T14:08:24.042Z,1.60
2018-07-07T14:13:17.293Z,1.97
2018-07-07T14:18:10.534Z,1.85
2018-07-07T14:23:03.865Z,2.20
2018-07-07T14:27:57.116Z,1.67
2018-07-07T14:32:50.454Z,1.60
2018-07-07T14:37:44.353Z,2.20
2018-07-07T14:42:50.773Z,2.13
2018-07-07T14:47:45.312Z,2.63
2018-07-07T14:52:38.601Z,1.83
2018-07-07T14:57:31.881Z,1.60
2018-07-07T15:02:25.160Z,2.23
2018-07-07T15:07:20.359Z,2.20
2018-07-07T15:12:15.129Z,2.00
2018-07-07T15:17:10.092Z,2.03
2018-07-07T15:22:03.835Z,2.10
2018-07-07T15:26:57.333Z,2.00
2018-07-07T15:31:50.562Z,2.50
2018-07-07T15:36:43.840Z,2.50
2018-07-07T15:41:37.122Z,1.93
2018-07-07T15:46:30.383Z,2.00
2018-07-07T15:51:23.674Z,2.50
2018-07-07T15:56:16.936Z,1.85
2018-07-07T16:01:10.295Z,1.90
2018-07-07T16:06:03.499Z,2.00
2018-07-07T16:10:56.807Z,1.90
2018-07-07T16:15:50.049Z,2.50
2018-07-07T16:20:43.417Z,2.20
2018-07-07T16:25:37.498Z,1.87
2018-07-07T16:30:30.795Z,2.27
2018-07-07T16:35:24.052Z,2.53
2018-07-07T16:40:19.324Z,2.10
2018-07-07T16:45:12.680Z,2.23
2018-07-07T16:50:06.947Z,3.10
2018-07-07T16:55:00.312Z,2.72
2018-07-07T16:59:54.068Z,2.20
2018-07-07T17:04:47.416Z,2.20
2018-07-07T17:09:40.752Z,2.80
2018-07-07T17:14:34.365Z,2.63
2018-07-07T17:19:27.804Z,2.57
2018-07-07T17:24:21.585Z,2.30
2018-07-07T17:29:14.964Z,2.03
2018-07-07T17:34:08.293Z,2.17
2018-07-07T17:39:01.801Z,1.87
2018-07-07T17:43:55.716Z,2.50
2018-07-07T17:48:48.988Z,2.13
2018-07-07T17:53:42.662Z,2.23
2018-07-07T17:58:36.091Z,3.53
2018-07-07T18:03:30.011Z,2.60
2018-07-07T18:08:23.204Z,1.60
2018-07-07T18:13:16.472Z,2.30
2018-07-07T18:18:09.710Z,2.40
2018-07-07T18:23:03.085Z,1.87
2018-07-07T18:27:56.343Z,2.43
2018-07-07T18:32:49.646Z,2.10
2018-07-07T18:37:42.822Z,2.07
2018-07-07T18:42:36.177Z,2.30
2018-07-07T18:47:29.458Z,2.20
2018-07-07T18:52:22.721Z,1.98
2018-07-07T18:57:16.082Z,2.10
2018-07-07T19:02:09.291Z,2.23
2018-07-07T19:07:03.092Z,3.20
2018-07-07T19:11:56.353Z,2.53
2018-07-07T19:16:49.666Z,2.12
2018-07-07T19:21:48.578Z,1.90
2018-07-07T19:26:47.522Z,2.13
2018-07-07T19:31:46.514Z,2.43
2018-07-07T19:36:45.398Z,2.63
2018-07-07T19:41:38.686Z,2.20
2018-07-07T19:46:32.022Z,2.33
2018-07-07T19:51:25.163Z,3.17
2018-07-07T19:56:18.408Z,1.87
2018-07-07T20:01:11.646Z,2.07
2018-07-07T20:06:04.857Z,2.47
2018-07-07T20:10:59.090Z,2.20
2018-07-07T20:16:16.062Z,1.60
2018-07-07T20:21:32.220Z,2.00
2018-07-07T20:26:25.526Z,1.70
2018-07-07T20:31:18.784Z,1.60
2018-07-07T20:36:12.056Z,1.97
2018-07-07T20:41:05.431Z,1.60
2018-07-07T20:45:58.741Z,1.67
2018-07-07T20:50:52.007Z,1.40
2018-07-07T20:55:45.184Z,1.20
2018-07-07T21:00:38.375Z,1.32
2018-07-07T21:05:31.640Z,1.80
2018-07-07T21:10:24.909Z,3.12
2018-07-07T21:15:18.294Z,2.07
2018-07-07T21:20:11.632Z,1.70
2018-07-07T21:25:04.959Z,2.97
2018-07-07T21:29:58.198Z,3.07
2018-07-07T21:34:51.485Z,1.98
2018-07-07T21:39:44.644Z,1.93
2018-07-07T21:44:37.970Z,2.10
2018-07-07T21:49:31.237Z,2.20
2018-07-07T21:54:24.549Z,2.08
2018-07-07T21:59:17.882Z,2.07
2018-07-07T22:04:16.636Z,2.00
2018-07-07T22:09:09.908Z,1.60
2018-07-07T22:14:03.216Z,1.80
2018-07-07T22:18:56.387Z,2.03
2018-07-07T22:23:49.654Z,1.87
2018-07-07T22:28:42.955Z,1.83
2018-07-07T22:33:36.135Z,1.80
2018-07-07T22:38:35.086Z,1.80
2018-07-07T22:43:28.914Z,1.63
2018-07-07T22:48:22.109Z,1.80
2018-07-07T22:53:15.347Z,2.00
2018-07-07T22:58:08.640Z,1.80
2018-07-07T23:03:02.397Z,1.90
2018-07-07T23:07:55.676Z,1.67
2018-07-07T23:12:48.948Z,1.87
2018-07-07T23:17:42.220Z,1.87
2018-07-07T23:22:49.163Z,1.87
2018-07-07T23:27:42.467Z,1.90
2018-07-07T23:32:37.664Z,1.98
2018-07-07T23:37:30.976Z,1.90
2018-07-07T23:42:24.241Z,1.90
2018-07-07T23:47:17.525Z,3.90
2018-07-07T23:52:11.347Z,8.43
2018-07-07T23:57:04.833Z,3.70
